Time;durP1;ratioP1;P1;durP2;ratioP2;P2;SDS_P1;SDS_P2;PMS_P1;PMS_P2;Temp;Humidity;BMP_temperature;BMP_pressure;BME280_temperature;BME280_humidity;BME280_pressure;Samples;Min_cycle;Max_cycle;Signal;HPM_P1;HPM_P2
2021/12/13 00:02:09;;;;;;;184.70;83.70;;;;;;;-1.53;86.30;101097.73;102844;1312;24490;-59
2021/12/13 00:04:43;;;;;;;168.50;77.10;;;;;;;-1.50;86.40;101094.63;102830;1312;22593;-59
2021/12/13 00:07:21;;;;;;;169.30;76.50;;;;;;;-1.46;86.40;101091.06;102927;1317;25531;-59
2021/12/13 00:09:56;;;;;;;170.00;77.90;;;;;;;-1.45;86.35;101088.98;102864;1319;23157;-59
2021/12/13 00:12:33;;;;;;;169.60;74.40;;;;;;;-1.44;86.33;101086.95;102915;1312;22671;-59
2021/12/13 00:15:11;;;;;;;168.70;82.70;;;;;;;-1.41;86.25;101088.20;102925;1312;22688;-59
2021/12/13 00:17:47;;;;;;;162.90;77.10;;;;;;;-1.42;86.24;101087.73;102952;1312;24236;-59
2021/12/13 00:20:28;;;;;;;168.30;78.60;;;;;;;-1.43;86.36;101090.48;102835;1312;22680;-59
2021/12/13 00:23:05;;;;;;;163.80;79.50;;;;;;;-1.41;86.43;101091.10;102854;1312;22590;-58
2021/12/13 00:25:45;;;;;;;181.90;79.30;;;;;;;-1.40;86.53;101096.13;102793;1314;22620;-58
2021/12/13 00:28:19;;;;;;;197.20;88.50;;;;;;;-1.39;86.63;101098.95;102857;1312;26575;-58
2021/12/13 00:31:08;;;;;;;193.20;88.60;;;;;;;-1.38;86.56;101100.29;102818;1317;24269;-59
2021/12/13 00:33:49;;;;;;;197.20;86.70;;;;;;;-1.36;86.65;101097.26;103106;1312;26801;-61
2021/12/13 00:36:31;;;;;;;196.40;89.90;;;;;;;-1.35;86.64;101095.23;102912;1316;22587;-59
2021/12/13 00:39:10;;;;;;;192.20;84.50;;;;;;;-1.33;86.83;101096.43;102790;1312;24329;-59
2021/12/13 00:41:44;;;;;;;199.20;87.40;;;;;;;-1.31;86.87;101098.48;102928;1312;23767;-59
2021/12/13 00:44:18;;;;;;;195.30;82.10;;;;;;;-1.29;86.90;101100.85;102834;1312;22659;-60
2021/12/13 00:46:55;;;;;;;180.60;81.80;;;;;;;-1.27;86.93;101098.28;102912;1317;22651;-60
2021/12/13 00:49:30;;;;;;;177.80;81.00;;;;;;;-1.24;86.99;101100.50;103027;1312;24343;-57
2021/12/13 00:52:02;;;;;;;170.10;76.50;;;;;;;-1.23;87.05;101099.88;102856;1319;22874;-59
2021/12/13 00:54:36;;;;;;;158.30;72.40;;;;;;;-1.22;87.00;101095.67;102975;1317;23237;-58
2021/12/13 00:57:44;;;;;;;160.10;69.50;;;;;;;-1.20;87.10;101095.13;102874;1312;22731;-60
2021/12/13 01:00:25;;;;;;;158.10;69.40;;;;;;;-1.19;87.10;101091.61;103109;1312;22709;-59
2021/12/13 01:03:00;;;;;;;155.70;72.20;;;;;;;-1.18;87.10;101093.82;102980;1312;25622;-60
2021/12/13 01:05:46;;;;;;;138.30;63.00;;;;;;;-1.16;87.10;101097.75;103028;1316;24326;-59
2021/12/13 01:08:43;;;;;;;154.60;70.90;;;;;;;-1.14;87.11;101103.95;102751;1313;22624;-63
2021/12/13 01:11:37;;;;;;;153.20;72.70;;;;;;;-1.11;87.04;101104.27;102842;1316;22813;-59
2021/12/13 01:14:21;;;;;;;151.80;70.70;;;;;;;-1.08;87.21;101107.52;102960;1312;22713;-58
2021/12/13 01:17:01;;;;;;;177.50;78.00;;;;;;;-1.06;87.18;101112.23;102907;1317;22657;-59
2021/12/13 01:19:48;;;;;;;165.90;75.90;;;;;;;-1.04;87.16;101111.70;102932;1313;26043;-60
2021/12/13 01:22:42;;;;;;;177.30;78.90;;;;;;;-1.03;87.23;101120.64;102839;1318;22616;-58
2021/12/13 01:25:36;;;;;;;167.40;77.00;;;;;;;-1.01;87.33;101116.27;102976;1312;22806;-58
2021/12/13 01:28:11;;;;;;;173.00;77.40;;;;;;;-0.99;87.24;101117.61;102859;1312;25553;-60
2021/12/13 01:30:48;;;;;;;163.40;74.40;;;;;;;-0.98;87.41;101112.62;102900;1312;22554;-59
2021/12/13 01:33:21;;;;;;;170.40;78.10;;;;;;;-0.96;87.53;101113.10;103054;1312;24325;-60
2021/12/13 01:35:56;;;;;;;169.70;78.10;;;;;;;-0.95;87.65;101111.62;102976;1316;24537;-60
2021/12/13 01:38:33;;;;;;;172.30;77.50;;;;;;;-0.94;87.68;101107.16;103074;1313;22900;-60
2021/12/13 01:41:08;;;;;;;157.80;75.50;;;;;;;-0.93;87.78;101105.83;102911;1312;22641;-59
2021/12/13 01:43:43;;;;;;;159.90;74.70;;;;;;;-0.91;87.83;101107.73;103259;1316;22663;-59
2021/12/13 01:46:14;;;;;;;150.20;69.90;;;;;;;-0.90;87.98;101112.44;103060;1316;24455;-58
2021/12/13 01:48:48;;;;;;;149.60;71.10;;;;;;;-0.89;87.97;101107.60;103005;1317;25679;-59
2021/12/13 01:51:25;;;;;;;147.50;71.00;;;;;;;-0.89;87.93;101107.35;103009;1312;22745;-58
2021/12/13 01:53:59;;;;;;;144.10;69.10;;;;;;;-0.89;88.06;101105.80;102974;1314;25306;-60
2021/12/13 01:56:42;;;;;;;150.20;69.50;;;;;;;-0.88;88.20;101104.95;102869;1317;25634;-59
2021/12/13 01:59:40;;;;;;;141.60;70.00;;;;;;;-0.86;88.20;101107.39;102877;1312;24299;-60
2021/12/13 02:02:18;;;;;;;149.00;69.80;;;;;;;-0.83;88.25;101107.73;102840;1312;23258;-60
2021/12/13 02:04:58;;;;;;;136.40;65.70;;;;;;;-0.82;88.30;101104.67;102970;1312;22740;-59
2021/12/13 02:07:42;;;;;;;145.10;68.90;;;;;;;-0.79;88.32;101107.50;102870;1312;22554;-60
2021/12/13 02:10:19;;;;;;;143.10;67.70;;;;;;;-0.78;88.46;101107.13;102810;1317;22573;-60
2021/12/13 02:13:00;;;;;;;146.90;68.30;;;;;;;-0.76;88.47;101107.14;102917;1318;23273;-59
2021/12/13 02:18:26;;;;;;;154.10;72.60;;;;;;;-0.71;88.63;101110.61;102890;1317;22577;-60
2021/12/13 02:21:06;;;;;;;156.60;72.00;;;;;;;-0.69;88.63;101111.11;102929;1312;22701;-59
2021/12/13 02:23:42;;;;;;;154.00;70.60;;;;;;;-0.66;88.57;101113.30;102865;1318;22587;-60
2021/12/13 02:26:13;;;;;;;155.00;72.40;;;;;;;-0.64;88.69;101111.36;102886;1317;24334;-61
2021/12/13 02:28:48;;;;;;;159.40;70.10;;;;;;;-0.62;88.74;101107.08;102821;1312;24360;-60
2021/12/13 02:31:23;;;;;;;144.70;66.70;;;;;;;-0.61;88.76;101108.41;102942;1317;24484;-58
2021/12/13 02:33:56;;;;;;;135.90;65.60;;;;;;;-0.60;88.76;101104.50;103210;1313;22577;-59
2021/12/13 02:36:34;;;;;;;142.10;65.20;;;;;;;-0.57;88.74;101106.63;102867;1313;22574;-60
2021/12/13 02:39:10;;;;;;;140.90;67.90;;;;;;;-0.55;88.75;101106.88;102943;1314;22669;-60
2021/12/13 02:41:42;;;;;;;144.00;65.50;;;;;;;-0.55;88.67;101108.38;102952;1316;25502;-62
2021/12/13 02:44:17;;;;;;;137.90;63.70;;;;;;;-0.53;88.71;101111.35;102974;1316;22558;-59
2021/12/13 02:46:49;;;;;;;131.80;65.80;;;;;;;-0.52;88.69;101113.88;102884;1312;24299;-60
2021/12/13 02:49:20;;;;;;;137.80;68.30;;;;;;;-0.49;88.82;101115.30;102905;1313;22590;-61
2021/12/13 02:51:55;;;;;;;146.30;67.70;;;;;;;-0.47;88.77;101119.47;102844;1317;22664;-60
2021/12/13 02:54:29;;;;;;;145.70;68.80;;;;;;;-0.46;88.70;101113.73;102931;1312;23121;-59
2021/12/13 02:57:03;;;;;;;136.60;66.60;;;;;;;-0.46;88.90;101116.11;103097;1312;22564;-59
2021/12/13 02:59:37;;;;;;;146.00;65.20;;;;;;;-0.44;88.86;101112.89;102924;1312;24266;-60
2021/12/13 03:02:12;;;;;;;134.80;64.00;;;;;;;-0.43;88.89;101112.20;102832;1312;25571;-60
2021/12/13 03:04:44;;;;;;;138.40;63.40;;;;;;;-0.40;88.87;101111.52;102978;1312;25610;-60
2021/12/13 03:07:21;;;;;;;141.60;65.80;;;;;;;-0.40;88.90;101112.60;102816;1316;24325;-60
2021/12/13 03:09:54;;;;;;;132.00;63.20;;;;;;;-0.38;88.92;101099.60;102936;1319;24421;-60
2021/12/13 03:12:28;;;;;;;133.10;62.20;;;;;;;-0.36;89.00;101099.00;103013;1318;26437;-60
2021/12/13 03:15:02;;;;;;;134.60;63.40;;;;;;;-0.34;89.05;101104.48;102927;1316;25591;-59
2021/12/13 03:17:36;;;;;;;133.70;62.00;;;;;;;-0.33;88.96;101096.59;102803;1314;22644;-60
2021/12/13 03:20:23;;;;;;;139.30;64.10;;;;;;;-0.32;89.00;101101.77;102920;1315;25253;-59
2021/12/13 03:23:30;;;;;;;134.30;63.90;;;;;;;-0.31;89.06;101103.88;102993;1317;23005;-61
2021/12/13 03:26:27;;;;;;;133.50;61.10;;;;;;;-0.30;89.01;101100.74;103052;1312;22647;-59
2021/12/13 03:29:11;;;;;;;138.70;63.70;;;;;;;-0.29;89.09;101102.80;102885;1318;24193;-60
2021/12/13 03:31:44;;;;;;;133.10;65.60;;;;;;;-0.27;89.11;101110.79;102975;1318;22670;-58
2021/12/13 03:34:19;;;;;;;135.40;63.60;;;;;;;-0.24;89.28;101113.79;102972;1313;22571;-59
2021/12/13 03:37:02;;;;;;;136.30;62.70;;;;;;;-0.22;89.18;101113.55;103063;1312;22580;-59
2021/12/13 03:39:39;;;;;;;137.90;63.80;;;;;;;-0.22;89.20;101119.45;102844;1319;25255;-60
2021/12/13 03:42:15;;;;;;;139.70;64.40;;;;;;;-0.21;89.23;101121.55;102907;1312;24298;-59
2021/12/13 03:44:49;;;;;;;142.70;62.90;;;;;;;-0.22;89.21;101119.83;102800;1317;22667;-62
2021/12/13 03:47:25;;;;;;;126.40;62.90;;;;;;;-0.20;89.31;101119.21;102914;1316;23172;-60
2021/12/13 03:49:59;;;;;;;140.10;65.30;;;;;;;-0.17;89.22;101119.63;103144;1312;27690;-60
2021/12/13 03:52:31;;;;;;;132.30;63.20;;;;;;;-0.16;89.29;101119.70;102935;1315;22702;-60
2021/12/13 03:55:05;;;;;;;147.30;68.50;;;;;;;-0.14;89.31;101116.03;102880;1316;22763;-60
2021/12/13 03:57:44;;;;;;;138.80;65.30;;;;;;;-0.12;89.32;101116.20;102959;1312;22579;-60
2021/12/13 04:00:20;;;;;;;139.80;65.40;;;;;;;-0.13;89.29;101117.36;102883;1317;22679;-60
2021/12/13 04:02:53;;;;;;;139.90;66.00;;;;;;;-0.12;89.37;101113.06;103099;1312;22696;-61
2021/12/13 04:05:27;;;;;;;141.90;64.40;;;;;;;-0.10;89.44;101117.22;102918;1318;22563;-59
2021/12/13 04:08:01;;;;;;;131.60;62.20;;;;;;;-0.10;89.45;101112.98;102784;1315;25278;-59
2021/12/13 04:10:35;;;;;;;145.40;67.10;;;;;;;-0.10;89.41;101117.39;102850;1316;24319;-59
2021/12/13 04:13:13;;;;;;;140.40;65.70;;;;;;;-0.08;89.45;101114.64;102925;1312;22583;-61
2021/12/13 04:15:58;;;;;;;139.20;63.70;;;;;;;-0.06;89.55;101115.75;102808;1317;25197;-59
2021/12/13 04:19:06;;;;;;;154.90;73.20;;;;;;;-0.06;89.54;101119.04;102854;1318;22558;-60
2021/12/13 04:21:42;;;;;;;150.10;71.50;;;;;;;-0.01;89.61;101116.95;102777;1318;24253;-60
2021/12/13 04:24:18;;;;;;;150.30;72.00;;;;;;;-0.00;89.61;101122.14;102739;1316;23180;-60
2021/12/13 04:26:53;;;;;;;155.70;75.50;;;;;;;-0.00;89.55;101124.01;102791;1316;24267;-59
2021/12/13 04:29:27;;;;;;;187.40;92.30;;;;;;;0.02;89.52;101126.45;102796;1316;24339;-59
2021/12/13 04:32:01;;;;;;;189.00;96.50;;;;;;;0.03;89.54;101130.23;102842;1316;22639;-59
2021/12/13 04:34:32;;;;;;;178.00;87.30;;;;;;;0.05;89.51;101130.85;102810;1318;22559;-60
2021/12/13 04:37:04;;;;;;;165.20;78.30;;;;;;;0.07;89.51;101130.47;102853;1313;25379;-61
2021/12/13 04:39:38;;;;;;;160.90;70.50;;;;;;;0.09;89.54;101131.96;102971;1318;24310;-59
2021/12/13 04:42:12;;;;;;;146.40;69.20;;;;;;;0.09;89.48;101132.75;102981;1316;22736;-61
2021/12/13 04:44:52;;;;;;;136.20;65.40;;;;;;;0.12;89.48;101133.00;102991;1315;25449;-59
2021/12/13 04:47:28;;;;;;;140.60;64.40;;;;;;;0.13;89.49;101131.51;102807;1316;24279;-59
2021/12/13 04:50:08;;;;;;;140.10;67.50;;;;;;;0.15;89.57;101131.44;102863;1313;25438;-58
2021/12/13 04:52:40;;;;;;;140.70;66.30;;;;;;;0.15;89.64;101135.12;102815;1318;22590;-59
2021/12/13 04:55:17;;;;;;;165.50;76.30;;;;;;;0.15;89.49;101134.10;102549;1318;387168;-59
2021/12/13 04:57:51;;;;;;;156.20;73.00;;;;;;;0.16;89.62;101127.60;102927;1319;25313;-59
2021/12/13 05:00:26;;;;;;;154.00;69.30;;;;;;;0.18;89.55;101127.77;102933;1318;25629;-61
2021/12/13 05:03:01;;;;;;;141.70;66.50;;;;;;;0.17;89.60;101121.09;102801;1319;22602;-60
2021/12/13 05:05:35;;;;;;;133.20;63.40;;;;;;;0.16;89.56;101119.38;102911;1318;22641;-58
2021/12/13 05:08:10;;;;;;;143.00;64.60;;;;;;;0.16;89.68;101117.71;102993;1316;25332;-60
2021/12/13 05:10:46;;;;;;;132.10;61.20;;;;;;;0.15;89.71;101122.73;102800;1310;25653;-59
2021/12/13 05:13:20;;;;;;;127.70;62.60;;;;;;;0.17;89.78;101118.58;102932;1319;22716;-58
2021/12/13 05:16:01;;;;;;;147.80;65.20;;;;;;;0.17;89.78;101116.93;102835;1318;22780;-57
2021/12/13 05:18:34;;;;;;;143.80;66.40;;;;;;;0.19;89.86;101117.11;102734;1316;25316;-58
2021/12/13 05:21:08;;;;;;;139.50;64.60;;;;;;;0.22;89.85;101120.88;104687;1312;24282;-58
2021/12/13 05:23:48;;;;;;;130.70;62.70;;;;;;;0.24;89.83;101124.25;102801;1314;25415;-59
2021/12/13 05:26:33;;;;;;;131.20;59.90;;;;;;;0.25;89.68;101124.40;102658;1313;22577;-58
2021/12/13 05:29:20;;;;;;;138.90;60.80;;;;;;;0.26;89.77;101129.13;102825;1313;22849;-57
2021/12/13 05:31:56;;;;;;;135.50;61.90;;;;;;;0.29;89.88;101130.63;102820;1318;22609;-58
2021/12/13 05:34:34;;;;;;;135.90;61.80;;;;;;;0.31;89.83;101126.55;102970;1316;24211;-58
2021/12/13 05:37:09;;;;;;;133.90;62.80;;;;;;;0.31;89.85;101129.91;103069;1319;22608;-58
2021/12/13 05:39:57;;;;;;;134.60;61.20;;;;;;;0.31;89.73;101128.65;102880;1318;25208;-58
2021/12/13 05:42:39;;;;;;;130.80;61.50;;;;;;;0.30;89.81;101129.92;102860;1317;22567;-58
2021/12/13 05:45:14;;;;;;;127.80;60.20;;;;;;;0.29;89.76;101129.68;102954;1313;23233;-58
2021/12/13 05:48:02;;;;;;;137.70;61.20;;;;;;;0.26;89.87;101128.27;102735;1313;23271;-58
2021/12/13 05:50:36;;;;;;;135.00;62.20;;;;;;;0.27;89.92;101133.36;102930;1313;22696;-56
2021/12/13 05:53:15;;;;;;;141.30;66.10;;;;;;;0.28;89.91;101133.98;103011;1318;22711;-59
2021/12/13 05:55:56;;;;;;;129.20;60.40;;;;;;;0.29;90.01;101139.10;102821;1317;22567;-58
2021/12/13 05:58:42;;;;;;;139.40;65.10;;;;;;;0.30;90.01;101137.37;102922;1313;23219;-57
2021/12/13 06:01:19;;;;;;;141.80;64.70;;;;;;;0.32;90.13;101143.81;102982;1312;22723;-59
2021/12/13 06:03:55;;;;;;;138.30;64.80;;;;;;;0.35;90.04;101145.80;102891;1319;24634;-58
2021/12/13 06:06:29;;;;;;;138.90;64.40;;;;;;;0.35;90.09;101142.88;102970;1316;24400;-59
2021/12/13 06:09:01;;;;;;;146.60;69.10;;;;;;;0.36;90.09;101144.45;103236;1312;25595;-57
2021/12/13 06:11:34;;;;;;;140.80;65.90;;;;;;;0.39;90.27;101144.70;103005;1313;26923;-59
2021/12/13 06:14:18;;;;;;;137.80;64.70;;;;;;;0.41;90.24;101142.90;102766;1318;25509;-58
2021/12/13 06:17:06;;;;;;;143.60;64.80;;;;;;;0.43;90.29;101146.67;102691;1313;24409;-58
2021/12/13 06:19:42;;;;;;;136.10;62.40;;;;;;;0.45;90.22;101149.27;103062;1316;22580;-57
2021/12/13 06:22:16;;;;;;;138.30;62.40;;;;;;;0.44;90.20;101154.44;102904;1318;22661;-58
2021/12/13 06:24:53;;;;;;;142.10;62.40;;;;;;;0.46;90.26;101157.73;102878;1319;24240;-58
2021/12/13 06:27:27;;;;;;;135.50;62.10;;;;;;;0.49;90.36;101164.42;102785;1317;28007;-58
2021/12/13 06:30:04;;;;;;;136.90;60.90;;;;;;;0.52;90.38;101164.20;103066;1312;25805;-57
2021/12/13 06:32:43;;;;;;;139.50;62.30;;;;;;;0.54;90.37;101166.16;102967;1316;22782;-58
2021/12/13 06:35:34;;;;;;;142.80;62.80;;;;;;;0.55;90.31;101165.54;102866;1319;24063;-59
2021/12/13 06:38:36;;;;;;;139.90;62.50;;;;;;;0.57;90.25;101168.45;103026;1318;22595;-58
2021/12/13 06:41:12;;;;;;;135.90;62.90;;;;;;;0.57;90.18;101166.88;103221;1312;22603;-59
2021/12/13 06:43:45;;;;;;;142.40;64.00;;;;;;;0.58;90.28;101170.50;102885;1317;22583;-57
2021/12/13 06:46:33;;;;;;;147.90;65.10;;;;;;;0.61;90.27;101174.11;102939;1317;22586;-59
2021/12/13 06:49:16;;;;;;;133.30;62.00;;;;;;;0.64;90.28;101175.77;102969;1318;24682;-59
2021/12/13 06:51:52;;;;;;;133.20;60.80;;;;;;;0.64;90.15;101174.90;102966;1317;25448;-59
2021/12/13 06:54:32;;;;;;;126.40;61.40;;;;;;;0.63;90.17;101176.23;102785;1313;22580;-59
2021/12/13 06:57:06;;;;;;;134.40;62.10;;;;;;;0.64;90.08;101178.28;102849;1317;22585;-58
2021/12/13 06:59:51;;;;;;;135.30;59.30;;;;;;;0.65;90.29;101177.34;103017;1318;22617;-57
2021/12/13 07:02:24;;;;;;;124.70;59.10;;;;;;;0.67;90.26;101184.57;102760;1316;26908;-57
2021/12/13 07:05:04;;;;;;;130.70;58.20;;;;;;;0.67;90.27;101186.14;102849;1313;22857;-57
2021/12/13 07:07:36;;;;;;;;;;;;;;;0.68;90.32;101184.64;103250;1313;22554;-57
2021/12/13 07:10:14;;;;;;;122.30;54.20;;;;;;;0.68;90.36;101189.91;102954;1317;24644;-58
2021/12/13 07:12:49;;;;;;;124.70;58.30;;;;;;;0.71;90.29;101191.88;103231;1318;22577;-55
2021/12/13 07:15:34;;;;;;;131.00;54.40;;;;;;;0.74;90.33;101194.79;102995;1313;24336;-54
2021/12/13 07:18:15;;;;;;;131.30;56.60;;;;;;;0.75;90.36;101198.02;103150;1315;24031;-58
2021/12/13 07:20:58;;;;;;;126.90;56.20;;;;;;;0.75;90.27;101201.70;102765;1312;23098;-57
2021/12/13 07:23:49;;;;;;;128.70;58.50;;;;;;;0.77;90.43;101201.00;102910;1312;22512;-58
2021/12/13 07:26:33;;;;;;;142.10;59.00;;;;;;;0.80;90.42;101204.23;102764;1312;22644;-57
2021/12/13 07:29:09;;;;;;;133.80;58.10;;;;;;;0.83;90.37;101207.06;106719;1319;22279;-60
2021/12/13 07:31:44;;;;;;;126.60;54.00;;;;;;;0.83;90.36;101209.96;104581;1317;22524;-59
2021/12/13 07:34:20;;;;;;;126.20;56.30;;;;;;;0.83;90.34;101213.42;104362;1314;26679;-58
2021/12/13 07:37:00;;;;;;;133.30;59.10;;;;;;;0.83;90.21;101218.84;103436;1318;22589;-58
2021/12/13 07:39:33;;;;;;;123.10;53.80;;;;;;;0.86;90.37;101218.77;103343;1313;24256;-59
2021/12/13 07:42:11;;;;;;;125.20;56.00;;;;;;;0.87;90.31;101217.67;103396;1316;23941;-58
2021/12/13 07:44:45;;;;;;;135.60;57.80;;;;;;;0.90;90.37;101223.01;103487;1315;25356;-58
2021/12/13 07:47:19;;;;;;;130.50;59.60;;;;;;;0.90;90.28;101225.14;103187;1316;22502;-58
2021/12/13 07:49:54;;;;;;;138.00;58.50;;;;;;;0.91;90.43;101229.94;103351;1312;23072;-61
2021/12/13 07:52:31;;;;;;;141.10;59.30;;;;;;;0.94;90.55;101229.07;103521;1319;22609;-60
2021/12/13 07:55:15;;;;;;;142.70;62.90;;;;;;;0.95;90.51;101234.89;103355;1319;22907;-59
2021/12/13 07:57:48;;;;;;;147.70;65.80;;;;;;;0.96;90.36;101233.01;103336;1319;22584;-59
2021/12/13 08:00:25;;;;;;;147.70;64.30;;;;;;;0.97;90.39;101239.45;103307;1317;22637;-60
2021/12/13 08:02:59;;;;;;;134.80;62.20;;;;;;;0.99;90.43;101237.65;103302;1313;23260;-58
2021/12/13 08:05:38;;;;;;;136.00;61.80;;;;;;;1.02;90.34;101239.23;103138;1312;22613;-59
2021/12/13 08:08:17;;;;;;;137.90;62.50;;;;;;;1.04;90.25;101241.35;103156;1312;22602;-60
2021/12/13 08:10:50;;;;;;;142.00;57.90;;;;;;;1.06;90.29;101241.43;103259;1312;22599;-59
2021/12/13 08:13:25;;;;;;;142.10;63.40;;;;;;;1.08;90.28;101243.48;103188;1314;22588;-58
2021/12/13 08:15:58;;;;;;;142.70;64.70;;;;;;;1.10;90.36;101242.54;103083;1312;24857;-60
2021/12/13 08:18:34;;;;;;;159.60;69.10;;;;;;;1.14;90.33;101240.90;103338;1312;25316;-59
2021/12/13 08:21:08;;;;;;;161.30;68.30;;;;;;;1.16;90.32;101241.05;103305;1314;22669;-56
2021/12/13 08:23:45;;;;;;;169.50;71.80;;;;;;;1.18;90.35;101243.96;103249;1312;22653;-59
2021/12/13 08:26:26;;;;;;;162.80;68.20;;;;;;;1.20;90.46;101240.20;103209;1316;25612;-58
2021/12/13 08:29:00;;;;;;;148.30;65.30;;;;;;;1.20;90.53;101245.86;103228;1313;22561;-58
2021/12/13 08:31:34;;;;;;;145.10;61.00;;;;;;;1.21;90.58;101248.14;103290;1313;22647;-58
2021/12/13 08:34:08;;;;;;;140.10;62.60;;;;;;;1.21;90.56;101249.55;103319;1318;22633;-59
2021/12/13 08:36:41;;;;;;;141.90;62.60;;;;;;;1.23;90.54;101247.90;103307;1319;26791;-59
2021/12/13 08:39:16;;;;;;;143.40;64.90;;;;;;;1.24;90.61;101248.30;103248;1315;25569;-59
2021/12/13 08:41:51;;;;;;;143.60;64.70;;;;;;;1.28;90.76;101255.13;103344;1313;26530;-58
2021/12/13 08:44:27;;;;;;;145.20;62.90;;;;;;;1.31;90.85;101257.42;103316;1316;22600;-59
2021/12/13 08:47:02;;;;;;;146.70;65.90;;;;;;;1.35;90.73;101262.21;103458;1312;24077;-58
2021/12/13 08:49:40;;;;;;;159.80;67.60;;;;;;;1.38;90.74;101265.13;103425;1313;22583;-58
2021/12/13 08:52:21;;;;;;;146.30;64.50;;;;;;;1.41;90.78;101270.08;103270;1317;22681;-59
2021/12/13 08:54:58;;;;;;;;;;;;;;;1.42;90.59;101271.81;103293;1312;25280;-58
2021/12/13 08:57:45;;;;;;;129.60;56.90;;;;;;;1.41;90.58;101272.83;103483;1318;22669;-59
2021/12/13 09:00:35;;;;;;;249.20;94.50;;;;;;;1.40;90.54;101277.63;103446;1314;25320;-59
2021/12/13 09:03:34;;;;;;;329.30;123.50;;;;;;;1.40;90.64;101274.96;103335;1312;25496;-59
2021/12/13 09:06:28;;;;;;;293.30;124.90;;;;;;;1.42;90.68;101280.07;103343;1312;25342;-60
2021/12/13 09:09:06;;;;;;;268.30;120.00;;;;;;;1.43;90.66;101279.98;103430;1316;22616;-59
2021/12/13 09:11:44;;;;;;;258.00;113.00;;;;;;;1.45;90.68;101280.63;103358;1312;22717;-59
2021/12/13 09:14:21;;;;;;;280.30;123.20;;;;;;;1.46;90.71;101281.23;103388;1317;22600;-58
2021/12/13 09:17:10;;;;;;;326.70;139.60;;;;;;;1.49;90.75;101278.66;103344;1318;22616;-58
2021/12/13 09:19:52;;;;;;;345.50;154.20;;;;;;;1.51;90.73;101279.91;102972;1312;22641;-58
2021/12/13 09:22:28;;;;;;;324.80;155.40;;;;;;;1.53;90.78;101281.25;102870;1313;25339;-59
2021/12/13 09:25:02;;;;;;;318.90;152.20;;;;;;;1.55;90.77;101283.14;103325;1312;22767;-60
2021/12/13 09:27:45;;;;;;;337.60;161.80;;;;;;;1.56;90.82;101284.02;103472;1316;22597;-60
2021/12/13 09:30:34;;;;;;;331.70;157.30;;;;;;;1.58;90.79;101284.95;103298;1313;22704;-59
2021/12/13 09:33:12;;;;;;;315.90;152.80;;;;;;;1.59;90.82;101279.13;103031;1315;22583;-59
2021/12/13 09:35:53;;;;;;;310.80;145.80;;;;;;;1.61;90.86;101280.06;103051;1313;25281;-60
2021/12/13 09:38:43;;;;;;;294.10;135.00;;;;;;;1.63;90.81;101280.30;103568;1312;22606;-61
2021/12/13 09:41:27;;;;;;;301.10;142.50;;;;;;;1.67;90.91;101283.38;104332;1313;22919;-59
2021/12/13 09:44:03;;;;;;;298.90;138.20;;;;;;;1.69;90.89;101281.17;103439;1312;22580;-60
2021/12/13 09:46:41;;;;;;;245.50;114.10;;;;;;;1.71;90.96;101281.96;103317;1315;22630;-59
2021/12/13 09:49:22;;;;;;;214.30;93.40;;;;;;;1.77;91.13;101283.55;103415;1315;26071;-60
2021/12/13 09:51:57;;;;;;;191.30;82.10;;;;;;;1.77;91.08;101285.50;103361;1316;25937;-60
2021/12/13 09:54:32;;;;;;;167.40;76.20;;;;;;;1.78;91.20;101284.08;103642;1316;24205;-59
2021/12/13 09:57:09;;;;;;;170.00;70.00;;;;;;;1.81;91.16;101288.33;103450;1313;25402;-58
2021/12/13 09:59:44;;;;;;;165.60;72.30;;;;;;;1.80;91.03;101289.51;103294;1312;22569;-60
2021/12/13 10:02:21;;;;;;;168.00;71.20;;;;;;;1.79;91.21;101291.87;103287;1314;25818;-60
2021/12/13 10:04:55;;;;;;;164.60;69.80;;;;;;;1.81;91.23;101292.40;103385;1312;23524;-60
2021/12/13 10:07:31;;;;;;;166.80;71.20;;;;;;;1.84;91.25;101293.84;103379;1317;23134;-59
2021/12/13 10:10:07;;;;;;;176.00;69.80;;;;;;;1.87;91.11;101293.28;103495;1314;22590;-59
2021/12/13 10:12:44;;;;;;;160.90;67.00;;;;;;;1.90;91.19;101290.21;103414;1318;22573;-60
2021/12/13 10:15:19;;;;;;;160.30;66.90;;;;;;;1.91;91.16;101293.83;103451;1312;22662;-60
2021/12/13 10:17:54;;;;;;;157.80;63.70;;;;;;;1.92;91.15;101293.13;103383;1312;22590;-59
2021/12/13 10:20:30;;;;;;;160.70;65.30;;;;;;;1.93;91.31;101296.42;103384;1313;24366;-59
2021/12/13 10:23:01;;;;;;;150.90;61.70;;;;;;;1.94;91.41;101292.41;103327;1316;25491;-61
2021/12/13 10:25:36;;;;;;;146.90;66.00;;;;;;;1.96;91.42;101293.67;103364;1313;22702;-59
2021/12/13 10:28:11;;;;;;;154.00;63.50;;;;;;;1.98;91.54;101292.41;103470;1312;22565;-61
2021/12/13 10:30:51;;;;;;;161.20;62.60;;;;;;;2.00;91.55;101290.67;103398;1317;24425;-59
2021/12/13 10:33:24;;;;;;;150.60;61.90;;;;;;;2.03;91.50;101290.75;103388;1318;22563;-59
2021/12/13 10:35:55;;;;;;;153.50;60.90;;;;;;;2.06;91.48;101292.48;103416;1312;24246;-64
2021/12/13 10:38:31;;;;;;;142.30;60.20;;;;;;;2.06;91.51;101292.79;103451;1313;22657;-59
2021/12/13 10:41:19;;;;;;;153.90;60.20;;;;;;;2.07;91.54;101294.76;103363;1313;22768;-60
2021/12/13 10:43:54;;;;;;;141.10;61.30;;;;;;;2.09;91.56;101292.78;102861;1313;25498;-58
2021/12/13 10:46:30;;;;;;;141.70;58.30;;;;;;;2.10;91.58;101292.23;102800;1315;25466;-60
2021/12/13 10:49:04;;;;;;;143.60;59.10;;;;;;;2.11;91.55;101290.42;102790;1318;25942;-58
2021/12/13 10:51:40;;;;;;;137.90;56.40;;;;;;;2.13;91.52;101288.13;102859;1319;22566;-57
2021/12/13 10:54:16;;;;;;;142.80;55.20;;;;;;;2.14;91.55;101290.49;103015;1315;22540;-58
2021/12/13 10:56:51;;;;;;;142.30;57.90;;;;;;;2.15;91.64;101287.42;102923;1319;25332;-58
2021/12/13 10:59:25;;;;;;;141.60;57.20;;;;;;;2.17;91.55;101289.63;102822;1317;25641;-59
2021/12/13 11:02:00;;;;;;;149.20;63.10;;;;;;;2.18;91.50;101291.11;102865;1315;24054;-61
2021/12/13 11:04:37;;;;;;;160.40;66.90;;;;;;;2.20;91.67;101294.98;102765;1316;22801;-58
2021/12/13 11:07:12;;;;;;;138.20;60.40;;;;;;;2.22;91.67;101293.95;102783;1314;22636;-61
2021/12/13 11:09:47;;;;;;;139.90;60.50;;;;;;;2.24;91.70;101294.64;102843;1321;22594;-61
2021/12/13 11:12:23;;;;;;;134.30;55.60;;;;;;;2.27;91.69;101293.30;102812;1315;22593;-60
2021/12/13 11:14:57;;;;;;;121.80;53.90;;;;;;;2.30;91.83;101295.27;102766;1318;22584;-59
2021/12/13 11:17:32;;;;;;;123.00;54.20;;;;;;;2.31;91.67;101294.63;102821;1314;25388;-59
2021/12/13 11:20:12;;;;;;;131.50;53.60;;;;;;;2.33;91.76;101294.94;102737;1316;25257;-58
2021/12/13 11:22:46;;;;;;;114.50;49.20;;;;;;;2.35;91.72;101292.27;103114;1319;22602;-58
2021/12/13 11:25:21;;;;;;;117.60;51.10;;;;;;;2.35;91.63;101294.14;102783;1314;25102;-60
2021/12/13 11:27:53;;;;;;;113.80;45.60;;;;;;;2.36;91.50;101294.54;102774;1315;22597;-59
2021/12/13 11:30:30;;;;;;;121.70;48.90;;;;;;;2.38;91.61;101294.77;102724;1315;22734;-62
2021/12/13 11:33:53;;;;;;;112.80;47.30;;;;;;;2.39;91.65;101293.35;102766;1315;22610;-58
2021/12/13 11:37:03;;;;;;;110.20;45.00;;;;;;;2.42;91.76;101294.84;102412;1320;25397;-61
2021/12/13 11:39:49;;;;;;;109.30;44.30;;;;;;;2.41;91.55;101294.21;101826;1333;22678;-59
2021/12/13 11:42:54;;;;;;;116.10;44.10;;;;;;;2.38;91.55;101297.36;101526;1330;22625;-59
2021/12/13 11:46:07;;;;;;;103.50;41.40;;;;;;;2.36;91.57;101294.38;101066;1339;24421;-59
2021/12/13 11:49:25;;;;;;;109.30;42.40;;;;;;;2.33;91.73;101292.11;101125;1338;22654;-59
2021/12/13 11:52:25;;;;;;;113.70;43.00;;;;;;;2.32;91.73;101293.29;100728;1343;25666;-59
2021/12/13 11:55:35;;;;;;;110.70;41.50;;;;;;;2.31;91.83;101291.33;100682;1341;22610;-60